Green Bay, WI

12:19 AM CDT on April 21, 2015 (GMT -0500)
MountainBayTrail | | Change Station
CLOSE
Current Station
Personal Weather Station
Location: Howard, WI
Elevation: 650 ft
Nearby Weather Stations

Elev 650 ft 44.58 °N, 88.09 °W | Updated 18 seconds ago

Overcast
Overcast
39.2 °F
Feels Like 35 °F
N
6.0
Wind Variable Wind from WNW
Gusts 7.0 mph

Today
High -- | Low -- °F
--% Chance of Precip.
Yesterday
High -- | Low -- °F
Precip. -- in
5:58 AM 7:44 PM
Waxing Crescent, 8% visible
Pressure 29.45 in
Visibility 10.0 miles
Clouds Overcast 5000 ft
Windchill 35 °F
Dew Point 31 °F
Humidity 73%
Rainfall 0.03 in
Snow Depth Not available.
UV 0 out of 12
Pollen 4.40 out of 12
Air Quality Not available.
Flu Activity Local Activity
METAR KGRB 210453Z 25013KT 10SM OVC050 05/M01 A2944 RMK AO2 SLP972 T00501011

More Conditions Fewer Conditions

Pressure 29.45 in
Visibility 10.0 miles
Clouds Overcast 5000 ft
Windchill 35 °F
Dew Point 31 °F
Humidity 73%
Rainfall 0.03 in
Snow Depth Not available.
UV 0 out of 12
Pollen 4.40 out of 12
Air Quality Not available.
Flu Activity Local Activity
METAR KGRB 210453Z 25013KT 10SM OVC050 05/M01 A2944 RMK AO2 SLP972 T00501011

More Conditions Fewer Conditions

10-Day Weather Forecast

Almanac

Astronomy

Apr. 21, 2015 Rise Set
Actual Time
Civil Twilight
Nautical Twilight
Astronomical Twilight
Moon
Length of Visible Light
Length of Day
Tomorrow will be .
, % of the Moon is Illuminated

Today's Extremes

State Highs State Lows

Community

WunderPhotos

Upload Photos

1,815,316 photos uploaded!

WunderBlogs® & News

Nearby

Air Quality

  Air Quality AQ Index Pollutant
Not available.

Snow Depth

Station Depth Elevation

Earthquake Activity

City Distance Mag. Time & Date
Minimum magnitude displayed is 2.5.

Coastal Water Temperatures

Place Temperature

Stations

Nearby Weather Stations

Station Location Temp. Windchill Dew Point Humidity Wind Precip. Elev Updated Type